Time;durP1;ratioP1;P1;durP2;ratioP2;P2;SDS_P1;SDS_P2;PMS_P1;PMS_P2;Temp;Humidity;BMP_temperature;BMP_pressure;BME280_temperature;BME280_humidity;BME280_pressure;Samples;Min_cycle;Max_cycle;Signal;HPM_P1;HPM_P2
2022/09/30 00:01:00;;;;;;;;;;;;;;;20.85;59.01;100322.38;5028000;28;5860;-60
2022/09/30 00:03:27;;;;;;;;;;;;;;;20.85;59.03;100333.88;5028858;28;4393;-60
2022/09/30 00:05:57;;;;;;;;;;;;;;;20.85;58.79;100336.75;5030872;28;4238;-59
2022/09/30 00:08:23;;;;;;;;;;;;;;;20.82;59.32;100335.22;5020747;28;4593;-60
2022/09/30 00:11:03;;;;;;;;;;;;;;;20.82;59.06;100338.09;5018354;28;4365;-59
2022/09/30 00:13:30;;;;;;;;;;;;;;;20.83;59.05;100339.56;5028139;28;4287;-60
2022/09/30 00:15:57;;;;;;;;;;;;;;;20.83;58.87;100338.81;5026155;28;4290;-60
2022/09/30 00:18:23;;;;;;;;;;;;;;;20.82;59.25;100343.09;5029522;28;4182;-60
2022/09/30 00:20:49;;;;;;;;;;;;;;;20.82;59.05;100351.72;5026992;28;4149;-60
2022/09/30 00:23:16;;;;;;;;;;;;;;;20.83;58.88;100344.59;5019942;28;5235;-60
2022/09/30 00:25:42;;;;;;;;;;;;;;;20.82;59.14;100346.72;5005897;28;4193;-60
2022/09/30 00:28:08;;;;;;;;;;;;;;;20.81;58.85;100351.00;5021929;28;4229;-60
2022/09/30 00:30:35;;;;;;;;;;;;;;;20.81;59.50;100341.63;5019456;28;5516;-59
2022/09/30 00:33:01;;;;;;;;;;;;;;;20.79;59.60;100350.91;5030571;28;4180;-60
2022/09/30 00:35:27;;;;;;;;;;;;;;;20.80;58.92;100346.66;5029022;28;5215;-60
2022/09/30 00:37:54;;;;;;;;;;;;;;;20.79;59.26;100345.16;5020813;28;4327;-60
2022/09/30 00:40:20;;;;;;;;;;;;;;;20.79;58.94;100348.03;5021042;28;4555;-60
2022/09/30 00:42:46;;;;;;;;;;;;;;;20.79;58.94;100345.16;5025137;28;4214;-60
2022/09/30 00:45:13;;;;;;;;;;;;;;;20.80;58.71;100343.78;5010800;28;4589;-60
2022/09/30 00:48:03;;;;;;;;;;;;;;;20.79;59.06;100350.19;5026136;28;4448;-60
2022/09/30 00:50:31;;;;;;;;;;;;;;;20.77;58.78;100353.00;5040301;28;4062;-60
2022/09/30 00:53:09;;;;;;;;;;;;;;;20.76;58.97;100352.25;5041178;28;5330;-60
2022/09/30 00:55:35;;;;;;;;;;;;;;;20.78;58.81;100349.47;5046214;28;4159;-60
2022/09/30 00:58:02;;;;;;;;;;;;;;;20.76;59.29;100354.41;5044872;28;4115;-60
2022/09/30 01:00:28;;;;;;;;;;;;;;;20.76;59.06;100352.25;5046335;28;4128;-60
2022/09/30 01:02:54;;;;;;;;;;;;;;;20.76;59.09;100358.00;5048108;28;4569;-60
2022/09/30 01:05:21;;;;;;;;;;;;;;;20.74;59.30;100360.06;5024944;28;4111;-59
2022/09/30 01:07:48;;;;;;;;;;;;;;;20.77;59.10;100361.63;5024420;28;4151;-60
2022/09/30 01:10:14;;;;;;;;;;;;;;;20.74;59.09;100355.06;5026887;28;4583;-60
2022/09/30 01:12:41;;;;;;;;;;;;;;;20.73;58.89;100359.34;5029728;28;4172;-60
2022/09/30 01:15:08;;;;;;;;;;;;;;;20.72;59.01;100360.72;5029889;28;4326;-60
2022/09/30 01:17:41;;;;;;;;;;;;;;;20.72;58.92;100375.13;5010599;28;4258;-60
2022/09/30 01:20:25;;;;;;;;;;;;;;;20.73;59.17;100370.09;5009130;28;4245;-60
2022/09/30 01:23:01;;;;;;;;;;;;;;;20.71;59.21;100373.66;5023115;28;4097;-60
2022/09/30 01:25:33;;;;;;;;;;;;;;;20.74;58.73;100369.44;5030263;28;5718;-60
2022/09/30 01:27:59;;;;;;;;;;;;;;;20.71;58.86;100373.66;5006125;28;5312;-60
2022/09/30 01:30:44;;;;;;;;;;;;;;;20.71;58.97;100374.38;5022345;28;5920;-60
2022/09/30 01:33:16;;;;;;;;;;;;;;;20.71;58.62;100374.38;5020963;28;4243;-60
2022/09/30 01:35:50;;;;;;;;;;;;;;;20.71;59.01;100374.38;5023068;28;4245;-60
2022/09/30 01:38:23;;;;;;;;;;;;;;;20.68;59.01;100363.44;5032556;28;5804;-61
2022/09/30 01:40:57;;;;;;;;;;;;;;;20.69;59.09;100364.94;5027571;28;4271;-60
2022/09/30 01:43:31;;;;;;;;;;;;;;;20.67;58.98;100367.75;5029121;28;4184;-60
2022/09/30 01:46:13;;;;;;;;;;;;;;;20.67;58.83;100359.84;5027270;28;4240;-60
2022/09/30 01:48:43;;;;;;;;;;;;;;;20.69;59.04;100367.81;5029689;28;4187;-60
2022/09/30 01:51:16;;;;;;;;;;;;;;;20.69;58.71;100370.69;5025490;28;4229;-59
2022/09/30 01:53:48;;;;;;;;;;;;;;;20.68;58.89;100369.22;5027223;28;4141;-60
2022/09/30 01:56:14;;;;;;;;;;;;;;;20.66;58.78;100367.00;5031009;28;6280;-60
2022/09/30 01:58:42;;;;;;;;;;;;;;;20.68;58.86;100372.09;5030469;28;4265;-59
2022/09/30 02:01:10;;;;;;;;;;;;;;;20.65;58.90;100364.78;5025199;28;4233;-60
2022/09/30 02:03:38;;;;;;;;;;;;;;;20.65;59.04;100361.91;5035582;28;5236;-60
2022/09/30 02:06:09;;;;;;;;;;;;;;;20.63;58.91;100359.69;5022535;28;4236;-59
2022/09/30 02:08:41;;;;;;;;;;;;;;;20.66;58.51;100367.00;5023330;28;4186;-60
2022/09/30 02:11:09;;;;;;;;;;;;;;;20.67;58.76;100368.47;5026182;28;4290;-60
2022/09/30 02:13:38;;;;;;;;;;;;;;;20.65;58.62;100370.53;5029710;28;5371;-59
2022/09/30 02:16:11;;;;;;;;;;;;;;;20.63;58.71;100367.59;5031273;28;4281;-60
2022/09/30 02:18:40;;;;;;;;;;;;;;;20.65;58.66;100371.28;5029054;28;5131;-60
2022/09/30 02:21:06;;;;;;;;;;;;;;;20.65;58.61;100364.78;5022707;28;4007;-59
2022/09/30 02:23:34;;;;;;;;;;;;;;;20.65;58.66;100370.53;5030283;28;4181;-60
2022/09/30 02:26:20;;;;;;;;;;;;;;;20.65;58.53;100371.28;5029010;28;4281;-59
2022/09/30 02:28:48;;;;;;;;;;;;;;;20.64;58.80;100374.81;5032884;28;4119;-60
2022/09/30 02:31:14;;;;;;;;;;;;;;;20.63;58.67;100367.59;5027610;28;4310;-60
2022/09/30 02:33:42;;;;;;;;;;;;;;;20.64;58.75;100374.81;5023813;28;5250;-60
2022/09/30 02:36:09;;;;;;;;;;;;;;;20.64;58.28;100366.19;5026539;28;4175;-60
2022/09/30 02:38:38;;;;;;;;;;;;;;;20.64;58.52;100366.94;5025487;28;5200;-60
2022/09/30 02:41:09;;;;;;;;;;;;;;;20.65;58.52;100371.28;5004794;28;4068;-60
2022/09/30 02:43:35;;;;;;;;;;;;;;;20.67;58.03;100377.09;5023698;28;5072;-60
2022/09/30 02:46:09;;;;;;;;;;;;;;;20.70;58.13;100390.16;5025067;28;5605;-60
2022/09/30 02:48:46;;;;;;;;;;;;;;;20.71;59.06;100388.03;5019327;28;5325;-60
2022/09/30 02:51:17;;;;;;;;;;;;;;;20.73;58.65;100387.34;5025549;28;5428;-59
2022/09/30 02:54:00;;;;;;;;;;;;;;;20.74;59.26;100389.59;5025548;28;4685;-60
2022/09/30 02:56:38;;;;;;;;;;;;;;;20.75;59.27;100390.31;5021073;28;4179;-60
2022/09/30 02:59:05;;;;;;;;;;;;;;;20.75;59.60;100387.44;5017147;28;4227;-60
2022/09/30 03:01:31;;;;;;;;;;;;;;;20.75;59.26;100391.03;5019014;28;5152;-59
2022/09/30 03:03:58;;;;;;;;;;;;;;;20.74;59.43;100403.97;5029289;28;4256;-60
2022/09/30 03:06:24;;;;;;;;;;;;;;;20.75;59.15;100398.94;5024994;28;4244;-60
2022/09/30 03:08:51;;;;;;;;;;;;;;;20.75;59.50;100401.81;5031397;28;4159;-60
2022/09/30 03:11:21;;;;;;;;;;;;;;;20.76;59.13;100401.16;5021188;28;5803;-60
2022/09/30 03:13:58;;;;;;;;;;;;;;;20.76;59.36;100395.41;5030255;28;4121;-59
2022/09/30 03:16:29;;;;;;;;;;;;;;;20.75;59.14;100408.31;5018453;28;4156;-60
2022/09/30 03:19:03;;;;;;;;;;;;;;;20.79;59.25;100411.34;5025126;28;4510;-60
2022/09/30 03:21:48;;;;;;;;;;;;;;;20.81;59.04;100417.19;5015069;28;5706;-60
2022/09/30 03:24:22;;;;;;;;;;;;;;;20.80;59.13;100415.72;5021827;28;4503;-60
2022/09/30 03:26:57;;;;;;;;;;;;;;;20.80;59.44;100404.19;5025012;28;4120;-60
2022/09/30 03:29:42;;;;;;;;;;;;;;;20.82;59.34;100418.66;5028239;28;4053;-60
2022/09/30 03:32:23;;;;;;;;;;;;;;;20.82;59.29;100406.41;5028799;28;4139;-60
2022/09/30 03:34:56;;;;;;;;;;;;;;;20.79;58.95;100414.22;5030817;28;4242;-60
2022/09/30 03:37:26;;;;;;;;;;;;;;;20.82;59.33;100417.91;5010022;28;4160;-60
2022/09/30 03:40:00;;;;;;;;;;;;;;;20.83;59.17;100419.41;5021300;28;4065;-60
2022/09/30 03:42:28;;;;;;;;;;;;;;;20.83;59.00;100414.38;5023299;28;4225;-60
2022/09/30 03:45:08;;;;;;;;;;;;;;;20.82;59.18;100410.03;5021420;28;4138;-60
2022/09/30 03:47:37;;;;;;;;;;;;;;;20.84;58.94;100421.59;5008152;28;4162;-60
2022/09/30 03:50:05;;;;;;;;;;;;;;;20.87;59.29;100425.31;5023755;28;4253;-59
2022/09/30 03:52:31;;;;;;;;;;;;;;;20.87;59.16;100420.28;5028448;28;5229;-61
2022/09/30 03:54:58;;;;;;;;;;;;;;;20.86;59.07;100426.69;5029148;28;4207;-59
2022/09/30 03:57:27;;;;;;;;;;;;;;;20.54;56.98;100429.78;5023755;28;4743;-59
2022/09/30 03:59:54;;;;;;;;;;;;;;;20.66;56.31;100433.19;5030640;28;4551;-59
2022/09/30 04:02:20;;;;;;;;;;;;;;;20.76;57.07;100435.69;5028898;28;4240;-60
2022/09/30 04:04:46;;;;;;;;;;;;;;;20.79;58.11;100440.13;5010600;28;4227;-60
2022/09/30 04:07:13;;;;;;;;;;;;;;;20.81;57.57;100445.22;5019990;28;5151;-61
2022/09/30 04:09:39;;;;;;;;;;;;;;;20.83;57.98;100443.16;5022325;28;4158;-60
2022/09/30 04:12:06;;;;;;;;;;;;;;;20.83;58.25;100443.16;5022677;28;4169;-60
2022/09/30 04:14:33;;;;;;;;;;;;;;;20.85;58.40;100443.22;5024684;28;4210;-60
2022/09/30 04:16:59;;;;;;;;;;;;;;;20.86;58.27;100441.09;5019520;28;5221;-60
2022/09/30 04:19:25;;;;;;;;;;;;;;;20.87;58.33;100446.19;5030458;28;4229;-60
2022/09/30 04:21:52;;;;;;;;;;;;;;;20.86;58.46;100446.84;5022119;28;4210;-60
2022/09/30 04:24:19;;;;;;;;;;;;;;;20.86;58.42;100453.34;5014885;28;4069;-61
2022/09/30 04:26:45;;;;;;;;;;;;;;;20.86;58.86;100449.72;5033019;28;4208;-61
2022/09/30 04:29:12;;;;;;;;;;;;;;;20.86;58.84;100453.34;5028965;28;5374;-61
2022/09/30 04:31:38;;;;;;;;;;;;;;;20.85;58.88;100460.50;5038822;28;4176;-60
2022/09/30 04:34:05;;;;;;;;;;;;;;;20.86;58.75;100464.84;5051668;28;4149;-61
2022/09/30 04:36:31;;;;;;;;;;;;;;;20.85;58.62;100471.28;5040580;28;4167;-65
2022/09/30 04:38:58;;;;;;;;;;;;;;;20.91;59.14;100471.50;5051606;28;4019;-66
2022/09/30 04:41:25;;;;;;;;;;;;;;;20.88;59.04;100467.81;5037930;28;4249;-67
2022/09/30 04:43:51;;;;;;;;;;;;;;;20.90;58.63;100476.53;5027320;28;5332;-69
2022/09/30 04:46:18;;;;;;;;;;;;;;;20.92;58.77;100488.09;5021679;28;5340;-63
2022/09/30 04:48:45;;;;;;;;;;;;;;;20.93;59.06;100486.69;5032279;28;4151;-61
2022/09/30 04:51:12;;;;;;;;;;;;;;;20.93;58.86;100488.84;5030035;28;4220;-62
2022/09/30 04:53:38;;;;;;;;;;;;;;;20.94;58.99;100493.22;5025270;28;4158;-62
2022/09/30 04:56:05;;;;;;;;;;;;;;;20.93;59.01;100498.22;5021777;28;5485;-62
2022/09/30 04:58:31;;;;;;;;;;;;;;;20.93;58.68;100498.22;5027596;28;4173;-62
2022/09/30 05:01:02;;;;;;;;;;;;;;;20.93;59.09;100498.22;5025250;28;5158;-65
2022/09/30 05:03:29;;;;;;;;;;;;;;;20.96;58.87;100506.91;5027300;28;5275;-67
2022/09/30 05:05:55;;;;;;;;;;;;;;;20.98;58.62;100498.38;5027123;28;5420;-62
2022/09/30 05:08:21;;;;;;;;;;;;;;;21.03;58.53;100503.63;5034095;28;5259;-65
2022/09/30 05:10:56;;;;;;;;;;;;;;;21.07;58.41;100500.16;5030998;28;4237;-65
2022/09/30 05:13:23;;;;;;;;;;;;;;;21.17;58.13;100496.94;5032791;28;5522;-62
2022/09/30 05:15:49;;;;;;;;;;;;;;;21.11;58.35;100508.94;5027982;28;4186;-62
2022/09/30 05:18:15;;;;;;;;;;;;;;;21.06;59.09;100515.97;5019156;28;5327;-61
2022/09/30 05:20:42;;;;;;;;;;;;;;;20.59;54.19;100522.75;5023261;28;4693;-63
2022/09/30 05:23:08;;;;;;;;;;;;;;;20.80;55.55;100519.31;5025067;28;4239;-63
2022/09/30 05:25:35;;;;;;;;;;;;;;;20.83;56.80;100528.75;5031847;28;4138;-63
2022/09/30 05:28:01;;;;;;;;;;;;;;;20.78;56.40;100527.84;5031892;28;4601;-63
2022/09/30 05:30:27;;;;;;;;;;;;;;;20.75;56.18;100529.16;5034816;28;4201;-63
2022/09/30 05:32:54;;;;;;;;;;;;;;;20.61;55.99;100535.09;5023188;28;4222;-63
2022/09/30 05:35:20;;;;;;;;;;;;;;;20.66;55.36;100538.88;5029011;28;5391;-63
2022/09/30 05:37:46;;;;;;;;;;;;;;;20.65;55.13;100526.63;5033939;28;4217;-63
2022/09/30 05:40:12;;;;;;;;;;;;;;;20.57;54.25;100537.81;5031246;28;5635;-63
2022/09/30 05:42:39;;;;;;;;;;;;;;;20.55;54.33;100540.59;5025187;28;4192;-64
2022/09/30 05:45:05;;;;;;;;;;;;;;;20.60;54.08;100535.75;5028406;28;5582;-59
2022/09/30 05:47:32;;;;;;;;;;;;;;;20.51;54.87;100541.16;5025404;28;4276;-60
2022/09/30 05:50:14;;;;;;;;;;;;;;;20.83;56.72;100543.16;5019855;28;5541;-60
2022/09/30 05:52:45;;;;;;;;;;;;;;;21.03;54.87;100551.84;5021481;28;5284;-57
2022/09/30 05:55:11;;;;;;;;;;;;;;;20.99;52.60;100548.78;5024357;28;4553;-62
2022/09/30 05:57:38;;;;;;;;;;;;;;;20.82;52.88;100556.81;5029836;28;4045;-57
2022/09/30 06:00:05;;;;;;;;;;;;;;;20.98;52.29;100556.69;5027002;28;4144;-70
2022/09/30 06:02:37;;;;;;;;;;;;;;;21.03;51.39;100564.09;5001224;28;5092;-66
2022/09/30 06:05:04;;;;;;;;;;;;;;;21.01;50.91;100563.28;5023478;28;4174;-75
2022/09/30 06:07:31;;;;;;;;;;;;;;;21.01;50.64;100563.28;5029994;28;4112;-75
2022/09/30 06:09:57;;;;;;;;;;;;;;;21.03;49.66;100558.31;5027051;28;5502;-72
2022/09/30 06:12:26;;;;;;;;;;;;;;;21.06;49.45;100559.88;5028170;28;4205;-72
2022/09/30 06:14:52;;;;;;;;;;;;;;;20.82;49.76;100568.31;5030403;28;5062;-70
2022/09/30 06:17:18;;;;;;;;;;;;;;;20.75;50.22;100574.47;5031117;28;4179;-68
2022/09/30 06:19:45;;;;;;;;;;;;;;;20.07;46.67;100569.53;5021781;28;4317;-63
2022/09/30 06:22:11;;;;;;;;;;;;;;;19.62;45.09;100575.41;5014577;28;4245;-73
2022/09/30 06:24:37;;;;;;;;;;;;;;;19.51;44.43;100570.59;5023754;28;4071;-73
2022/09/30 06:27:04;;;;;;;;;;;;;;;19.50;43.60;100575.59;5016469;28;4248;-73
2022/09/30 06:29:31;;;;;;;;;;;;;;;19.43;42.84;100573.84;5030360;28;5202;-68
2022/09/30 06:31:57;;;;;;;;;;;;;;;19.59;43.29;100577.47;5021871;28;4253;-71
2022/09/30 06:34:23;;;;;;;;;;;;;;;20.06;45.27;100576.66;5018638;28;4245;-72
2022/09/30 06:36:50;;;;;;;;;;;;;;;20.35;45.96;100577.88;5021760;28;4263;-72
2022/09/30 06:39:16;;;;;;;;;;;;;;;20.37;47.11;100580.84;5018704;28;4268;-64
2022/09/30 06:41:42;;;;;;;;;;;;;;;20.23;46.89;100588.88;5008714;28;4234;-69
2022/09/30 06:44:12;;;;;;;;;;;;;;;20.01;45.80;100598.00;5021041;28;5605;-68
2022/09/30 06:46:38;;;;;;;;;;;;;;;20.24;45.94;100588.19;5021570;28;5319;-68
2022/09/30 06:49:18;;;;;;;;;;;;;;;20.42;46.50;100601.88;5029324;28;5191;-68
2022/09/30 06:51:44;;;;;;;;;;;;;;;20.50;47.72;100602.19;5030691;28;5386;-68
2022/09/30 06:54:12;;;;;;;;;;;;;;;20.53;48.97;100598.03;5020949;28;4247;-66
2022/09/30 06:56:38;;;;;;;;;;;;;;;20.56;49.51;100604.59;5031747;28;5460;-68
2022/09/30 06:59:05;;;;;;;;;;;;;;;20.58;50.55;100607.59;5029604;28;4213;-68
2022/09/30 07:01:32;;;;;;;;;;;;;;;20.61;50.39;100603.41;5024334;28;5265;-68
2022/09/30 07:03:58;;;;;;;;;;;;;;;20.62;50.74;100602.00;5026712;28;4240;-68
2022/09/30 07:06:28;;;;;;;;;;;;;;;20.63;51.37;100612.13;5028741;28;4193;-68
2022/09/30 07:08:55;;;;;;;;;;;;;;;20.66;51.24;100616.53;5026981;28;4167;-68
2022/09/30 07:11:22;;;;;;;;;;;;;;;20.64;51.96;100616.47;5031652;28;4589;-67
2022/09/30 07:13:49;;;;;;;;;;;;;;;20.64;52.30;100607.84;5032601;28;4551;-67
2022/09/30 07:16:16;;;;;;;;;;;;;;;20.67;51.76;100610.16;5033323;28;5254;-67
2022/09/30 07:18:43;;;;;;;;;;;;;;;20.68;52.41;100619.50;5028234;28;4357;-68
2022/09/30 07:21:12;;;;;;;;;;;;;;;20.68;52.74;100622.38;5031943;28;4295;-68
2022/09/30 07:23:44;;;;;;;;;;;;;;;20.69;53.04;100623.88;5032792;28;4199;-68
2022/09/30 07:26:10;;;;;;;;;;;;;;;20.68;52.76;100616.63;5026853;28;4254;-68
2022/09/30 07:28:38;;;;;;;;;;;;;;;20.71;52.05;100621.81;5028595;28;5482;-67
2022/09/30 07:31:08;;;;;;;;;;;;;;;20.72;52.55;100616.81;5032028;28;4157;-67
2022/09/30 07:33:55;;;;;;;;;;;;;;;20.71;53.04;100626.84;5026094;28;4309;-68
2022/09/30 07:36:26;;;;;;;;;;;;;;;20.73;53.07;100635.56;5028866;28;4282;-68
2022/09/30 07:38:59;;;;;;;;;;;;;;;20.75;52.49;100638.50;5026665;28;5365;-67
2022/09/30 07:41:28;;;;;;;;;;;;;;;20.73;52.78;100629.03;5008722;28;4881;-64
2022/09/30 07:43:55;;;;;;;;;;;;;;;20.54;52.64;100633.28;5003000;28;4218;-68
2022/09/30 07:46:26;;;;;;;;;;;;;;;21.12;51.87;100622.72;5006296;28;5077;-66
2022/09/30 07:48:53;;;;;;;;;;;;;;;21.31;51.49;100613.38;5017885;28;4167;-67
2022/09/30 07:51:21;;;;;;;;;;;;;;;21.44;51.35;100619.63;5010906;28;4113;-65
2022/09/30 07:53:48;;;;;;;;;;;;;;;21.37;51.66;100624.38;5015008;28;4471;-65
2022/09/30 07:56:15;;;;;;;;;;;;;;;21.21;51.12;100629.53;5017125;28;4862;-65
2022/09/30 07:58:41;;;;;;;;;;;;;;;21.36;50.93;100627.94;5020588;28;4086;-60
2022/09/30 08:01:07;;;;;;;;;;;;;;;21.45;51.34;100641.28;5028473;28;4248;-66
2022/09/30 08:03:38;;;;;;;;;;;;;;;21.46;51.16;100634.13;5013142;28;4185;-73
2022/09/30 08:06:11;;;;;;;;;;;;;;;21.43;50.80;100632.56;5022588;28;4681;-71
2022/09/30 08:08:37;;;;;;;;;;;;;;;21.43;50.46;100641.22;5017643;28;4197;-67
2022/09/30 08:11:05;;;;;;;;;;;;;;;21.42;50.10;100648.38;5017788;28;4259;-71
2022/09/30 08:13:32;;;;;;;;;;;;;;;21.36;50.09;100639.47;5024864;28;4553;-66
2022/09/30 08:15:58;;;;;;;;;;;;;;;21.43;49.36;100649.84;5028276;28;4194;-65
2022/09/30 08:18:24;;;;;;;;;;;;;;;21.41;49.37;100646.88;5020968;28;4351;-63
2022/09/30 08:20:51;;;;;;;;;;;;;;;21.61;49.79;100646.94;5017180;28;4269;-68
2022/09/30 08:23:17;;;;;;;;;;;;;;;21.75;50.11;100656.09;5020771;28;4189;-67
2022/09/30 08:25:43;;;;;;;;;;;;;;;21.43;51.54;100650.59;5012411;28;5552;-66
2022/09/30 08:28:10;;;;;;;;;;;;;;;21.20;53.08;100660.47;5023565;28;4210;-66
2022/09/30 08:30:36;;;;;;;;;;;;;;;21.11;53.57;100667.31;5023504;28;4197;-65
2022/09/30 08:33:02;;;;;;;;;;;;;;;21.06;53.93;100659.91;5016725;28;4146;-64
2022/09/30 08:35:29;;;;;;;;;;;;;;;21.08;53.65;100662.88;5017090;28;4292;-63
2022/09/30 08:37:55;;;;;;;;;;;;;;;21.08;54.12;100662.88;5015535;28;4241;-69
2022/09/30 08:40:29;;;;;;;;;;;;;;;21.06;54.44;100665.66;5014100;28;5265;-69
2022/09/30 08:43:02;;;;;;;;;;;;;;;21.07;54.25;100667.13;5013591;28;4251;-66
2022/09/30 08:45:37;;;;;;;;;;;;;;;21.06;54.51;100677.19;5016406;28;4277;-68
2022/09/30 08:48:14;;;;;;;;;;;;;;;21.07;54.31;100675.78;5018533;28;4137;-65
2022/09/30 08:50:47;;;;;;;;;;;;;;;21.09;53.69;100681.59;5024422;28;9584;-66
2022/09/30 08:53:22;;;;;;;;;;;;;;;21.04;53.68;100677.09;4999473;28;4671;-65
2022/09/30 08:55:49;;;;;;;;;;;;;;;21.07;54.51;100688.03;5027157;28;4245;-66
2022/09/30 08:58:19;;;;;;;;;;;;;;;21.08;54.41;100694.53;5025067;28;4189;-64
2022/09/30 09:00:45;;;;;;;;;;;;;;;21.10;53.86;100688.88;5019537;28;4086;-64
2022/09/30 09:03:12;;;;;;;;;;;;;;;21.07;54.44;100685.16;5008483;28;4602;-63
2022/09/30 09:05:47;;;;;;;;;;;;;;;21.07;54.67;100687.28;5007361;28;4381;-78
2022/09/30 09:08:20;;;;;;;;;;;;;;;21.09;54.51;100698.88;5006716;28;4254;-71
2022/09/30 09:10:50;;;;;;;;;;;;;;;21.32;54.29;100689.75;5014974;28;4336;-70
2022/09/30 09:13:25;;;;;;;;;;;;;;;21.75;54.09;100685.66;5019479;28;5540;-77
2022/09/30 09:15:56;;;;;;;;;;;;;;;21.62;53.15;100692.34;5011069;28;5375;-61
2022/09/30 09:18:26;;;;;;;;;;;;;;;21.42;53.86;100695.22;5016849;28;5370;-61
2022/09/30 09:20:54;;;;;;;;;;;;;;;21.43;53.79;100684.41;5019366;28;5344;-60
2022/09/30 09:23:20;;;;;;;;;;;;;;;21.29;54.66;100691.06;5021708;28;4272;-60
2022/09/30 09:25:49;;;;;;;;;;;;;;;21.29;54.69;100691.06;5028263;28;5798;-60
2022/09/30 09:28:21;;;;;;;;;;;;;;;21.40;54.52;100685.72;5026816;28;5216;-61
2022/09/30 09:30:50;;;;;;;;;;;;;;;21.38;54.65;100682.75;5027631;28;4241;-61
2022/09/30 09:33:24;;;;;;;;;;;;;;;21.36;54.80;100691.31;5026718;28;4227;-62
2022/09/30 09:36:09;;;;;;;;;;;;;;;21.41;54.83;100687.94;5019425;28;4174;-61
2022/09/30 09:38:43;;;;;;;;;;;;;;;21.44;54.71;100691.66;5012497;28;4260;-60
2022/09/30 09:41:13;;;;;;;;;;;;;;;21.42;54.80;100688.72;5030045;28;5197;-60
2022/09/30 09:43:49;;;;;;;;;;;;;;;21.45;54.79;100682.34;5023458;28;4241;-61
2022/09/30 09:46:19;;;;;;;;;;;;;;;21.58;54.48;100677.81;5031528;28;4211;-63
2022/09/30 09:48:46;;;;;;;;;;;;;;;21.67;54.29;100673.84;5026167;28;4182;-61
2022/09/30 09:51:15;;;;;;;;;;;;;;;21.65;54.66;100675.91;5031951;28;5276;-61
2022/09/30 09:53:48;;;;;;;;;;;;;;;21.69;54.22;100676.03;5023744;28;4165;-62
2022/09/30 09:56:36;;;;;;;;;;;;;;;21.64;54.54;100668.66;5027781;28;4445;-60
2022/09/30 09:59:15;;;;;;;;;;;;;;;21.69;54.35;100667.41;5025444;28;4318;-65
2022/09/30 10:01:49;;;;;;;;;;;;;;;21.66;54.54;100663.69;5020639;28;4174;-63
2022/09/30 10:04:22;;;;;;;;;;;;;;;21.34;54.99;100666.78;5033261;28;4183;-63
2022/09/30 10:06:52;;;;;;;;;;;;;;;21.27;55.60;100665.06;5031059;28;4294;-64
2022/09/30 10:09:26;;;;;;;;;;;;;;;21.57;55.22;100670.56;5027370;28;4264;-60
2022/09/30 10:12:05;;;;;;;;;;;;;;;21.75;54.48;100662.59;5027612;28;4249;-61
2022/09/30 10:14:35;;;;;;;;;;;;;;;21.80;54.54;100663.50;5031116;28;4225;-60
2022/09/30 10:17:02;;;;;;;;;;;;;;;21.76;54.71;100663.34;5025226;28;4246;-62
2022/09/30 10:19:29;;;;;;;;;;;;;;;21.80;54.73;100657.00;5024646;28;4853;-61
2022/09/30 10:22:07;;;;;;;;;;;;;;;21.89;54.41;100658.78;5028415;28;6167;-61
2022/09/30 10:24:37;;;;;;;;;;;;;;;21.77;54.35;100658.34;5025694;28;5811;-66
2022/09/30 10:27:03;;;;;;;;;;;;;;;21.71;54.41;100662.44;5023085;28;4766;-62
2022/09/30 10:29:30;;;;;;;;;;;;;;;21.64;54.58;100657.84;5029905;28;4389;-62
2022/09/30 10:32:01;;;;;;;;;;;;;;;21.55;55.17;100650.31;5029056;28;4158;-61
2022/09/30 10:34:27;;;;;;;;;;;;;;;21.60;54.79;100657.72;5022699;28;4149;-63
2022/09/30 10:36:54;;;;;;;;;;;;;;;21.57;54.91;100653.28;5022370;28;4436;-62
2022/09/30 10:39:23;;;;;;;;;;;;;;;21.66;54.59;100649.28;5029852;28;4084;-62
2022/09/30 10:41:50;;;;;;;;;;;;;;;21.63;54.67;100656.41;5019900;28;4249;-62
2022/09/30 10:44:20;;;;;;;;;;;;;;;21.60;54.91;100656.97;5026916;28;4344;-63
2022/09/30 10:46:47;;;;;;;;;;;;;;;21.58;54.92;100654.75;5031237;28;5514;-62
2022/09/30 10:49:27;;;;;;;;;;;;;;;22.06;54.39;100646.44;5026185;28;4729;-66
2022/09/30 10:51:54;;;;;;;;;;;;;;;22.21;53.54;100641.19;5026215;28;4757;-64
2022/09/30 10:54:32;;;;;;;;;;;;;;;22.28;53.54;100642.88;5020474;28;4285;-64
2022/09/30 10:56:59;;;;;;;;;;;;;;;22.27;53.53;100641.44;5024211;28;4261;-64
2022/09/30 10:59:28;;;;;;;;;;;;;;;22.28;53.29;100648.66;5030484;28;5175;-64
2022/09/30 11:01:59;;;;;;;;;;;;;;;22.29;53.42;100647.28;5024614;28;5521;-64
2022/09/30 11:04:32;;;;;;;;;;;;;;;22.25;53.83;100644.97;5028924;28;5652;-63
2022/09/30 11:07:00;;;;;;;;;;;;;;;22.19;53.86;100644.72;5016005;28;4822;-63
2022/09/30 11:09:43;;;;;;;;;;;;;;;22.26;53.87;100642.81;5023720;28;5155;-67
2022/09/30 11:12:09;;;;;;;;;;;;;;;21.76;53.15;100631.63;5007750;28;4741;-63
2022/09/30 11:14:38;;;;;;;;;;;;;;;21.70;51.32;100631.44;5021018;28;4199;-65
2022/09/30 11:17:09;;;;;;;;;;;;;;;21.85;52.36;100624.78;5022434;28;4462;-64
2022/09/30 11:19:42;;;;;;;;;;;;;;;22.01;52.10;100630.38;5008893;28;4829;-63
2022/09/30 11:22:25;;;;;;;;;;;;;;;22.05;52.49;100624.75;5022914;28;4906;-63
2022/09/30 11:24:51;;;;;;;;;;;;;;;22.04;52.75;100623.28;5018245;28;4560;-61
2022/09/30 11:27:21;;;;;;;;;;;;;;;21.92;53.30;100622.84;5000752;28;4256;-56
2022/09/30 11:29:50;;;;;;;;;;;;;;;22.02;53.48;100629.00;4973462;28;4573;-55
2022/09/30 11:32:22;;;;;;;;;;;;;;;22.04;53.50;100622.56;4964228;28;4133;-56
2022/09/30 11:35:01;;;;;;;;;;;;;;;22.13;53.28;100625.06;4949478;28;5540;-64
2022/09/30 11:37:47;;;;;;;;;;;;;;;22.23;53.33;100626.84;4923227;28;4229;-61
2022/09/30 11:40:23;;;;;;;;;;;;;;;21.98;53.28;100631.72;4909296;28;4707;-61
2022/09/30 11:42:54;;;;;;;;;;;;;;;21.90;53.19;100637.94;4918840;28;4442;-63
2022/09/30 11:45:20;;;;;;;;;;;;;;;21.91;53.43;100632.91;4914560;28;5241;-72
2022/09/30 11:47:46;;;;;;;;;;;;;;;21.89;53.68;100629.94;4921563;28;4226;-70
2022/09/30 11:50:24;;;;;;;;;;;;;;;21.80;53.90;100626.03;4922949;28;4199;-71
2022/09/30 11:52:54;;;;;;;;;;;;;;;21.75;54.04;100628.03;4940400;28;5555;-67
2022/09/30 11:55:36;;;;;;;;;;;;;;;21.70;54.13;100620.63;4993693;28;5530;-67
2022/09/30 11:58:03;;;;;;;;;;;;;;;21.79;53.81;100620.94;5003170;28;4233;-65
2022/09/30 12:00:51;;;;;;;;;;;;;;;21.87;53.92;100633.50;4999287;28;5613;-69
2022/09/30 12:03:28;;;;;;;;;;;;;;;22.04;53.76;100628.34;5000947;28;4225;-70
2022/09/30 12:05:56;;;;;;;;;;;;;;;22.18;52.95;100634.59;4985191;28;5110;-71
2022/09/30 12:08:35;;;;;;;;;;;;;;;22.29;52.98;100629.97;4998813;28;4253;-70
2022/09/30 12:11:12;;;;;;;;;;;;;;;22.30;52.84;100635.03;4983714;28;4102;-69
2022/09/30 12:13:40;;;;;;;;;;;;;;;22.34;52.97;100620.75;4995502;28;4136;-72
2022/09/30 12:16:08;;;;;;;;;;;;;;;22.37;52.65;100622.31;4989600;28;4429;-70
2022/09/30 12:18:36;;;;;;;;;;;;;;;22.24;53.09;100625.44;4990693;28;5357;-74
2022/09/30 12:21:06;;;;;;;;;;;;;;;22.56;52.37;100623.69;5009104;28;4164;-74
2022/09/30 12:23:34;;;;;;;;;;;;;;;22.51;52.08;100621.31;5003480;28;4248;-67
2022/09/30 12:26:01;;;;;;;;;;;;;;;22.32;53.30;100620.69;4986634;28;4178;-68
2022/09/30 12:31:26;;;;;;;;;;;;;;;22.03;53.52;100618.94;4976869;28;4182;-71
2022/09/30 12:34:08;;;;;;;;;;;;;;;22.02;53.67;100637.63;4989717;28;4181;-75
2022/09/30 12:36:41;;;;;;;;;;;;;;;21.96;53.86;100637.41;4990721;28;4221;-79
2022/09/30 12:39:21;;;;;;;;;;;;;;;21.95;53.73;100633.78;4990087;28;5329;-79
2022/09/30 12:41:51;;;;;;;;;;;;;;;21.96;53.88;100634.53;4994193;28;5241;-79
2022/09/30 12:44:30;;;;;;;;;;;;;;;21.96;53.62;100637.41;4964212;28;4123;-77
2022/09/30 12:47:15;;;;;;;;;;;;;;;21.95;53.79;100639.56;4991477;28;4251;-80
2022/09/30 12:49:41;;;;;;;;;;;;;;;21.96;53.87;100635.25;4988970;28;4322;-78
2022/09/30 12:52:15;;;;;;;;;;;;;;;21.90;53.81;100640.81;4985622;28;4256;-72
2022/09/30 12:55:01;;;;;;;;;;;;;;;21.93;53.93;100636.59;4999253;28;5178;-73
2022/09/30 12:57:31;;;;;;;;;;;;;;;21.96;53.87;100634.53;4979564;28;4248;-69
2022/09/30 13:00:02;;;;;;;;;;;;;;;21.92;52.70;100628.63;5004220;28;5216;-80
2022/09/30 13:02:35;;;;;;;;;;;;;;;22.11;53.27;100639.41;4993101;28;5336;-72
2022/09/30 13:05:26;;;;;;;;;;;;;;;22.28;52.92;100634.97;4973241;28;4196;-75